sensor_id;sensor_type;location;lat;lon;timestamp;P1;durP1;ratioP1;P2;durP2;ratioP2
56477;SDS011;42382;53.210;5.772;2023-12-14T00:01:56;11.00;;;4.15;;
56477;SDS011;42382;53.210;5.772;2023-12-14T00:04:22;11.27;;;4.00;;
56477;SDS011;42382;53.210;5.772;2023-12-14T00:06:47;10.65;;;4.18;;
56477;SDS011;42382;53.210;5.772;2023-12-14T00:09:13;14.05;;;4.32;;
56477;SDS011;42382;53.210;5.772;2023-12-14T00:11:39;11.30;;;4.40;;
56477;SDS011;42382;53.210;5.772;2023-12-14T00:14:04;8.77;;;3.80;;
56477;SDS011;42382;53.210;5.772;2023-12-14T00:16:30;8.70;;;3.60;;
56477;SDS011;42382;53.210;5.772;2023-12-14T00:18:56;9.52;;;4.00;;
56477;SDS011;42382;53.210;5.772;2023-12-14T00:21:22;11.13;;;3.83;;
56477;SDS011;42382;53.210;5.772;2023-12-14T00:23:47;9.55;;;3.30;;
56477;SDS011;42382;53.210;5.772;2023-12-14T00:26:13;11.65;;;3.95;;
56477;SDS011;42382;53.210;5.772;2023-12-14T00:28:38;12.35;;;3.55;;
56477;SDS011;42382;53.210;5.772;2023-12-14T00:31:04;14.18;;;3.75;;
56477;SDS011;42382;53.210;5.772;2023-12-14T00:33:30;10.00;;;3.47;;
56477;SDS011;42382;53.210;5.772;2023-12-14T00:35:55;9.48;;;3.33;;
56477;SDS011;42382;53.210;5.772;2023-12-14T00:38:21;10.07;;;3.35;;
56477;SDS011;42382;53.210;5.772;2023-12-14T00:40:46;9.50;;;3.15;;
56477;SDS011;42382;53.210;5.772;2023-12-14T00:43:12;10.40;;;3.70;;
56477;SDS011;42382;53.210;5.772;2023-12-14T00:45:37;8.30;;;3.60;;
56477;SDS011;42382;53.210;5.772;2023-12-14T00:48:03;7.20;;;3.42;;
56477;SDS011;42382;53.210;5.772;2023-12-14T00:50:29;7.05;;;3.05;;
56477;SDS011;42382;53.210;5.772;2023-12-14T00:52:54;6.53;;;3.08;;
56477;SDS011;42382;53.210;5.772;2023-12-14T00:55:20;6.70;;;3.58;;
56477;SDS011;42382;53.210;5.772;2023-12-14T00:57:46;7.90;;;3.70;;
56477;SDS011;42382;53.210;5.772;2023-12-14T01:00:11;8.95;;;3.50;;
56477;SDS011;42382;53.210;5.772;2023-12-14T01:02:37;8.32;;;3.60;;
56477;SDS011;42382;53.210;5.772;2023-12-14T01:05:03;7.63;;;3.45;;
56477;SDS011;42382;53.210;5.772;2023-12-14T01:07:29;9.07;;;3.10;;
56477;SDS011;42382;53.210;5.772;2023-12-14T01:09:55;8.65;;;3.85;;
56477;SDS011;42382;53.210;5.772;2023-12-14T01:12:20;8.98;;;3.83;;
56477;SDS011;42382;53.210;5.772;2023-12-14T01:14:46;6.68;;;3.25;;
56477;SDS011;42382;53.210;5.772;2023-12-14T01:17:11;6.97;;;3.50;;
56477;SDS011;42382;53.210;5.772;2023-12-14T01:19:39;7.88;;;3.17;;
56477;SDS011;42382;53.210;5.772;2023-12-14T01:22:06;8.40;;;3.47;;
56477;SDS011;42382;53.210;5.772;2023-12-14T01:24:31;9.82;;;3.40;;
56477;SDS011;42382;53.210;5.772;2023-12-14T01:26:57;6.40;;;3.38;;
56477;SDS011;42382;53.210;5.772;2023-12-14T01:29:22;5.28;;;3.40;;
56477;SDS011;42382;53.210;5.772;2023-12-14T01:31:48;5.07;;;3.40;;
56477;SDS011;42382;53.210;5.772;2023-12-14T01:34:13;4.43;;;3.03;;
56477;SDS011;42382;53.210;5.772;2023-12-14T01:36:40;5.10;;;3.38;;
56477;SDS011;42382;53.210;5.772;2023-12-14T01:39:06;4.57;;;3.28;;
56477;SDS011;42382;53.210;5.772;2023-12-14T01:41:32;4.88;;;3.25;;
56477;SDS011;42382;53.210;5.772;2023-12-14T01:43:57;7.32;;;3.28;;
56477;SDS011;42382;53.210;5.772;2023-12-14T01:46:23;7.03;;;3.58;;
56477;SDS011;42382;53.210;5.772;2023-12-14T01:48:49;10.27;;;4.50;;
56477;SDS011;42382;53.210;5.772;2023-12-14T01:51:15;9.02;;;3.63;;
56477;SDS011;42382;53.210;5.772;2023-12-14T01:53:40;9.10;;;3.90;;
56477;SDS011;42382;53.210;5.772;2023-12-14T01:56:06;9.95;;;4.38;;
56477;SDS011;42382;53.210;5.772;2023-12-14T01:58:32;8.18;;;4.03;;
56477;SDS011;42382;53.210;5.772;2023-12-14T02:03:51;6.20;;;3.25;;
56477;SDS011;42382;53.210;5.772;2023-12-14T02:06:19;9.38;;;4.72;;
56477;SDS011;42382;53.210;5.772;2023-12-14T02:08:45;10.63;;;3.97;;
56477;SDS011;42382;53.210;5.772;2023-12-14T02:11:11;12.13;;;4.57;;
56477;SDS011;42382;53.210;5.772;2023-12-14T02:13:37;9.68;;;4.15;;
56477;SDS011;42382;53.210;5.772;2023-12-14T02:16:02;8.90;;;4.55;;
56477;SDS011;42382;53.210;5.772;2023-12-14T02:18:28;8.45;;;4.75;;
56477;SDS011;42382;53.210;5.772;2023-12-14T02:20:54;9.50;;;4.43;;
56477;SDS011;42382;53.210;5.772;2023-12-14T02:23:20;15.20;;;4.50;;
56477;SDS011;42382;53.210;5.772;2023-12-14T02:25:45;6.78;;;3.90;;
56477;SDS011;42382;53.210;5.772;2023-12-14T02:28:11;8.90;;;4.88;;
56477;SDS011;42382;53.210;5.772;2023-12-14T02:30:37;9.48;;;4.10;;
56477;SDS011;42382;53.210;5.772;2023-12-14T02:33:02;12.93;;;4.80;;
56477;SDS011;42382;53.210;5.772;2023-12-14T02:35:28;11.45;;;4.82;;
56477;SDS011;42382;53.210;5.772;2023-12-14T02:37:53;9.73;;;4.78;;
56477;SDS011;42382;53.210;5.772;2023-12-14T02:40:19;8.82;;;4.75;;
56477;SDS011;42382;53.210;5.772;2023-12-14T02:42:46;9.95;;;5.15;;
56477;SDS011;42382;53.210;5.772;2023-12-14T02:45:11;10.40;;;4.80;;
56477;SDS011;42382;53.210;5.772;2023-12-14T02:47:37;9.90;;;4.25;;
56477;SDS011;42382;53.210;5.772;2023-12-14T02:50:02;7.82;;;4.38;;
56477;SDS011;42382;53.210;5.772;2023-12-14T02:52:28;9.55;;;4.65;;
56477;SDS011;42382;53.210;5.772;2023-12-14T02:54:54;8.57;;;4.20;;
56477;SDS011;42382;53.210;5.772;2023-12-14T02:57:19;13.25;;;5.28;;
56477;SDS011;42382;53.210;5.772;2023-12-14T02:59:45;9.35;;;4.95;;
56477;SDS011;42382;53.210;5.772;2023-12-14T03:02:10;10.10;;;4.63;;
56477;SDS011;42382;53.210;5.772;2023-12-14T03:04:39;8.55;;;4.90;;
56477;SDS011;42382;53.210;5.772;2023-12-14T03:07:05;9.85;;;4.80;;
56477;SDS011;42382;53.210;5.772;2023-12-14T03:09:31;12.63;;;4.50;;
56477;SDS011;42382;53.210;5.772;2023-12-14T03:11:57;12.02;;;4.53;;
56477;SDS011;42382;53.210;5.772;2023-12-14T03:14:24;12.32;;;5.22;;
56477;SDS011;42382;53.210;5.772;2023-12-14T03:16:49;11.02;;;5.22;;
56477;SDS011;42382;53.210;5.772;2023-12-14T03:19:15;8.00;;;4.55;;
56477;SDS011;42382;53.210;5.772;2023-12-14T03:21:41;11.25;;;4.93;;
56477;SDS011;42382;53.210;5.772;2023-12-14T03:24:07;9.50;;;4.82;;
56477;SDS011;42382;53.210;5.772;2023-12-14T03:26:34;18.35;;;5.72;;
56477;SDS011;42382;53.210;5.772;2023-12-14T03:28:59;12.43;;;5.45;;
56477;SDS011;42382;53.210;5.772;2023-12-14T03:31:25;10.95;;;5.75;;
56477;SDS011;42382;53.210;5.772;2023-12-14T03:33:51;14.95;;;7.00;;
56477;SDS011;42382;53.210;5.772;2023-12-14T03:36:16;14.93;;;6.80;;
56477;SDS011;42382;53.210;5.772;2023-12-14T03:38:42;13.40;;;7.00;;
56477;SDS011;42382;53.210;5.772;2023-12-14T03:41:07;18.75;;;6.93;;
56477;SDS011;42382;53.210;5.772;2023-12-14T03:43:33;15.55;;;6.97;;
56477;SDS011;42382;53.210;5.772;2023-12-14T03:45:58;21.48;;;7.13;;
56477;SDS011;42382;53.210;5.772;2023-12-14T03:48:24;16.25;;;6.78;;
56477;SDS011;42382;53.210;5.772;2023-12-14T03:50:50;15.52;;;6.43;;
56477;SDS011;42382;53.210;5.772;2023-12-14T03:53:15;15.95;;;6.40;;
56477;SDS011;42382;53.210;5.772;2023-12-14T03:55:41;17.55;;;6.97;;
56477;SDS011;42382;53.210;5.772;2023-12-14T03:58:06;12.57;;;6.20;;
56477;SDS011;42382;53.210;5.772;2023-12-14T04:00:32;12.25;;;5.95;;
56477;SDS011;42382;53.210;5.772;2023-12-14T04:02:57;13.85;;;6.88;;
56477;SDS011;42382;53.210;5.772;2023-12-14T04:05:23;18.40;;;6.55;;
56477;SDS011;42382;53.210;5.772;2023-12-14T04:07:49;16.02;;;7.30;;
56477;SDS011;42382;53.210;5.772;2023-12-14T04:10:14;14.82;;;6.88;;
56477;SDS011;42382;53.210;5.772;2023-12-14T04:12:40;12.82;;;6.60;;
56477;SDS011;42382;53.210;5.772;2023-12-14T04:15:07;16.67;;;6.78;;
56477;SDS011;42382;53.210;5.772;2023-12-14T04:17:34;14.52;;;5.75;;
56477;SDS011;42382;53.210;5.772;2023-12-14T04:20:00;16.52;;;7.13;;
56477;SDS011;42382;53.210;5.772;2023-12-14T04:22:26;14.63;;;6.72;;
56477;SDS011;42382;53.210;5.772;2023-12-14T04:24:52;13.85;;;7.55;;
56477;SDS011;42382;53.210;5.772;2023-12-14T04:27:18;15.93;;;6.53;;
56477;SDS011;42382;53.210;5.772;2023-12-14T04:29:44;14.23;;;6.20;;
56477;SDS011;42382;53.210;5.772;2023-12-14T04:32:09;16.95;;;7.43;;
56477;SDS011;42382;53.210;5.772;2023-12-14T04:34:35;15.77;;;6.35;;
56477;SDS011;42382;53.210;5.772;2023-12-14T04:37:00;14.55;;;6.35;;
56477;SDS011;42382;53.210;5.772;2023-12-14T04:39:26;14.07;;;6.35;;
56477;SDS011;42382;53.210;5.772;2023-12-14T04:41:52;16.95;;;6.45;;
56477;SDS011;42382;53.210;5.772;2023-12-14T04:44:19;18.92;;;7.10;;
56477;SDS011;42382;53.210;5.772;2023-12-14T04:46:46;21.38;;;7.18;;
56477;SDS011;42382;53.210;5.772;2023-12-14T04:49:12;16.80;;;7.22;;
56477;SDS011;42382;53.210;5.772;2023-12-14T04:51:38;15.93;;;6.72;;
56477;SDS011;42382;53.210;5.772;2023-12-14T04:54:03;17.40;;;7.13;;
56477;SDS011;42382;53.210;5.772;2023-12-14T04:56:29;15.32;;;6.60;;
56477;SDS011;42382;53.210;5.772;2023-12-14T04:58:55;16.83;;;7.47;;
56477;SDS011;42382;53.210;5.772;2023-12-14T05:01:20;17.83;;;6.88;;
56477;SDS011;42382;53.210;5.772;2023-12-14T05:03:46;20.27;;;7.25;;
56477;SDS011;42382;53.210;5.772;2023-12-14T05:06:12;17.45;;;6.13;;
56477;SDS011;42382;53.210;5.772;2023-12-14T05:08:37;16.75;;;6.47;;
56477;SDS011;42382;53.210;5.772;2023-12-14T05:11:03;15.43;;;6.78;;
56477;SDS011;42382;53.210;5.772;2023-12-14T05:13:29;14.38;;;7.35;;
56477;SDS011;42382;53.210;5.772;2023-12-14T05:15:55;18.23;;;7.10;;
56477;SDS011;42382;53.210;5.772;2023-12-14T05:18:22;15.02;;;6.55;;
56477;SDS011;42382;53.210;5.772;2023-12-14T05:20:49;12.38;;;6.60;;
56477;SDS011;42382;53.210;5.772;2023-12-14T05:23:15;17.35;;;7.00;;
56477;SDS011;42382;53.210;5.772;2023-12-14T05:25:40;16.73;;;6.60;;
56477;SDS011;42382;53.210;5.772;2023-12-14T05:28:06;14.70;;;7.28;;
56477;SDS011;42382;53.210;5.772;2023-12-14T05:30:32;10.80;;;6.13;;
56477;SDS011;42382;53.210;5.772;2023-12-14T05:32:57;17.08;;;6.85;;
56477;SDS011;42382;53.210;5.772;2023-12-14T05:35:23;15.65;;;6.88;;
56477;SDS011;42382;53.210;5.772;2023-12-14T05:37:49;19.77;;;7.43;;
56477;SDS011;42382;53.210;5.772;2023-12-14T05:40:15;16.55;;;6.80;;
56477;SDS011;42382;53.210;5.772;2023-12-14T05:42:40;15.68;;;5.88;;
56477;SDS011;42382;53.210;5.772;2023-12-14T05:45:06;15.60;;;6.40;;
56477;SDS011;42382;53.210;5.772;2023-12-14T05:47:32;15.57;;;6.75;;
56477;SDS011;42382;53.210;5.772;2023-12-14T05:49:59;13.00;;;6.72;;
56477;SDS011;42382;53.210;5.772;2023-12-14T05:52:28;15.77;;;6.50;;
56477;SDS011;42382;53.210;5.772;2023-12-14T05:54:54;16.70;;;6.82;;
56477;SDS011;42382;53.210;5.772;2023-12-14T05:57:20;14.45;;;7.15;;
56477;SDS011;42382;53.210;5.772;2023-12-14T05:59:45;17.95;;;6.22;;
56477;SDS011;42382;53.210;5.772;2023-12-14T06:02:11;16.90;;;6.43;;
56477;SDS011;42382;53.210;5.772;2023-12-14T06:04:37;15.10;;;6.88;;
56477;SDS011;42382;53.210;5.772;2023-12-14T06:07:02;14.10;;;6.50;;
56477;SDS011;42382;53.210;5.772;2023-12-14T06:09:28;13.93;;;6.57;;
56477;SDS011;42382;53.210;5.772;2023-12-14T06:12:00;22.88;;;8.02;;
56477;SDS011;42382;53.210;5.772;2023-12-14T06:14:26;12.77;;;5.95;;
56477;SDS011;42382;53.210;5.772;2023-12-14T06:16:52;13.15;;;6.22;;
56477;SDS011;42382;53.210;5.772;2023-12-14T06:19:18;15.38;;;6.28;;
56477;SDS011;42382;53.210;5.772;2023-12-14T06:21:43;14.65;;;6.22;;
56477;SDS011;42382;53.210;5.772;2023-12-14T06:24:11;14.50;;;7.45;;
56477;SDS011;42382;53.210;5.772;2023-12-14T06:26:40;20.00;;;6.70;;
56477;SDS011;42382;53.210;5.772;2023-12-14T06:29:08;18.17;;;7.20;;
56477;SDS011;42382;53.210;5.772;2023-12-14T06:31:34;18.85;;;6.80;;
56477;SDS011;42382;53.210;5.772;2023-12-14T06:33:59;16.52;;;7.00;;
56477;SDS011;42382;53.210;5.772;2023-12-14T06:36:28;22.23;;;7.55;;
56477;SDS011;42382;53.210;5.772;2023-12-14T06:38:54;17.77;;;6.88;;
56477;SDS011;42382;53.210;5.772;2023-12-14T06:41:21;14.52;;;6.75;;
56477;SDS011;42382;53.210;5.772;2023-12-14T06:43:47;17.48;;;7.63;;
56477;SDS011;42382;53.210;5.772;2023-12-14T06:46:13;14.98;;;6.18;;
56477;SDS011;42382;53.210;5.772;2023-12-14T06:48:39;13.70;;;5.68;;
56477;SDS011;42382;53.210;5.772;2023-12-14T06:51:05;17.83;;;6.75;;
56477;SDS011;42382;53.210;5.772;2023-12-14T06:53:30;16.25;;;6.55;;
56477;SDS011;42382;53.210;5.772;2023-12-14T06:55:56;14.18;;;6.82;;
56477;SDS011;42382;53.210;5.772;2023-12-14T06:58:22;13.23;;;6.22;;
56477;SDS011;42382;53.210;5.772;2023-12-14T07:00:47;12.93;;;6.63;;
56477;SDS011;42382;53.210;5.772;2023-12-14T07:03:13;16.17;;;6.03;;
56477;SDS011;42382;53.210;5.772;2023-12-14T07:05:38;16.27;;;6.75;;
56477;SDS011;42382;53.210;5.772;2023-12-14T07:08:04;18.23;;;6.70;;
56477;SDS011;42382;53.210;5.772;2023-12-14T07:10:30;14.68;;;7.30;;
56477;SDS011;42382;53.210;5.772;2023-12-14T07:12:56;16.08;;;7.03;;
56477;SDS011;42382;53.210;5.772;2023-12-14T07:15:21;19.27;;;6.53;;
56477;SDS011;42382;53.210;5.772;2023-12-14T07:17:47;17.67;;;7.95;;
56477;SDS011;42382;53.210;5.772;2023-12-14T07:20:12;17.17;;;8.25;;
56477;SDS011;42382;53.210;5.772;2023-12-14T07:22:38;13.75;;;6.70;;
56477;SDS011;42382;53.210;5.772;2023-12-14T07:25:04;14.05;;;7.88;;
56477;SDS011;42382;53.210;5.772;2023-12-14T07:27:29;19.45;;;6.80;;
56477;SDS011;42382;53.210;5.772;2023-12-14T07:29:55;16.15;;;6.70;;
56477;SDS011;42382;53.210;5.772;2023-12-14T07:32:21;17.35;;;7.38;;
56477;SDS011;42382;53.210;5.772;2023-12-14T07:34:46;15.93;;;7.10;;
56477;SDS011;42382;53.210;5.772;2023-12-14T07:37:12;17.92;;;6.95;;
56477;SDS011;42382;53.210;5.772;2023-12-14T07:39:38;16.55;;;7.40;;
56477;SDS011;42382;53.210;5.772;2023-12-14T07:42:04;22.27;;;7.68;;
56477;SDS011;42382;53.210;5.772;2023-12-14T07:44:30;13.85;;;6.88;;
56477;SDS011;42382;53.210;5.772;2023-12-14T07:46:57;15.52;;;7.18;;
56477;SDS011;42382;53.210;5.772;2023-12-14T07:49:25;15.32;;;8.02;;
56477;SDS011;42382;53.210;5.772;2023-12-14T07:51:50;16.27;;;8.07;;
56477;SDS011;42382;53.210;5.772;2023-12-14T07:54:16;23.38;;;7.78;;
56477;SDS011;42382;53.210;5.772;2023-12-14T07:56:43;18.15;;;8.45;;
56477;SDS011;42382;53.210;5.772;2023-12-14T07:59:09;13.15;;;6.45;;
56477;SDS011;42382;53.210;5.772;2023-12-14T08:01:35;16.70;;;7.40;;
56477;SDS011;42382;53.210;5.772;2023-12-14T08:04:01;18.45;;;7.85;;
56477;SDS011;42382;53.210;5.772;2023-12-14T08:06:27;20.83;;;7.40;;
56477;SDS011;42382;53.210;5.772;2023-12-14T08:08:52;18.23;;;7.68;;
56477;SDS011;42382;53.210;5.772;2023-12-14T08:11:18;18.17;;;7.47;;
56477;SDS011;42382;53.210;5.772;2023-12-14T08:13:43;18.77;;;7.53;;
56477;SDS011;42382;53.210;5.772;2023-12-14T08:16:09;20.20;;;8.10;;
56477;SDS011;42382;53.210;5.772;2023-12-14T08:18:36;20.95;;;6.53;;
56477;SDS011;42382;53.210;5.772;2023-12-14T08:21:02;16.70;;;7.18;;
56477;SDS011;42382;53.210;5.772;2023-12-14T08:23:28;13.93;;;7.63;;
56477;SDS011;42382;53.210;5.772;2023-12-14T08:25:55;14.48;;;7.25;;
56477;SDS011;42382;53.210;5.772;2023-12-14T08:28:24;12.95;;;7.20;;
56477;SDS011;42382;53.210;5.772;2023-12-14T08:30:50;11.45;;;6.40;;
56477;SDS011;42382;53.210;5.772;2023-12-14T08:33:16;17.50;;;7.72;;
56477;SDS011;42382;53.210;5.772;2023-12-14T08:35:42;17.38;;;8.07;;
56477;SDS011;42382;53.210;5.772;2023-12-14T08:38:07;17.80;;;7.13;;
56477;SDS011;42382;53.210;5.772;2023-12-14T08:40:33;17.55;;;7.05;;
56477;SDS011;42382;53.210;5.772;2023-12-14T08:42:58;16.45;;;7.88;;
56477;SDS011;42382;53.210;5.772;2023-12-14T08:45:24;16.70;;;7.50;;
56477;SDS011;42382;53.210;5.772;2023-12-14T08:47:50;12.57;;;7.18;;
56477;SDS011;42382;53.210;5.772;2023-12-14T08:50:15;16.38;;;7.80;;
56477;SDS011;42382;53.210;5.772;2023-12-14T08:52:41;13.75;;;7.15;;
56477;SDS011;42382;53.210;5.772;2023-12-14T08:55:07;16.38;;;7.68;;
56477;SDS011;42382;53.210;5.772;2023-12-14T08:57:33;14.07;;;7.50;;
56477;SDS011;42382;53.210;5.772;2023-12-14T08:59:59;14.80;;;7.35;;
56477;SDS011;42382;53.210;5.772;2023-12-14T09:02:25;14.90;;;7.43;;
56477;SDS011;42382;53.210;5.772;2023-12-14T09:04:51;21.67;;;8.57;;
56477;SDS011;42382;53.210;5.772;2023-12-14T09:07:17;19.65;;;7.53;;
56477;SDS011;42382;53.210;5.772;2023-12-14T09:09:42;16.38;;;7.88;;
56477;SDS011;42382;53.210;5.772;2023-12-14T09:12:09;15.43;;;8.07;;
56477;SDS011;42382;53.210;5.772;2023-12-14T09:14:34;14.70;;;7.75;;
56477;SDS011;42382;53.210;5.772;2023-12-14T09:17:01;22.27;;;8.60;;
56477;SDS011;42382;53.210;5.772;2023-12-14T09:19:28;17.77;;;7.88;;
56477;SDS011;42382;53.210;5.772;2023-12-14T09:21:54;16.95;;;8.13;;
56477;SDS011;42382;53.210;5.772;2023-12-14T09:24:20;18.42;;;7.85;;
56477;SDS011;42382;53.210;5.772;2023-12-14T09:26:45;17.02;;;9.45;;
56477;SDS011;42382;53.210;5.772;2023-12-14T09:29:11;14.80;;;8.13;;
56477;SDS011;42382;53.210;5.772;2023-12-14T09:31:37;14.75;;;8.75;;
56477;SDS011;42382;53.210;5.772;2023-12-14T09:34:06;16.65;;;8.90;;
56477;SDS011;42382;53.210;5.772;2023-12-14T09:36:31;17.70;;;7.93;;
56477;SDS011;42382;53.210;5.772;2023-12-14T09:38:57;17.80;;;8.10;;
56477;SDS011;42382;53.210;5.772;2023-12-14T09:41:22;16.63;;;8.18;;
56477;SDS011;42382;53.210;5.772;2023-12-14T09:43:48;13.00;;;7.30;;
56477;SDS011;42382;53.210;5.772;2023-12-14T09:46:14;13.30;;;7.95;;
56477;SDS011;42382;53.210;5.772;2023-12-14T09:48:42;14.38;;;7.78;;
56477;SDS011;42382;53.210;5.772;2023-12-14T09:51:07;19.13;;;8.52;;
56477;SDS011;42382;53.210;5.772;2023-12-14T09:53:34;14.30;;;8.38;;
56477;SDS011;42382;53.210;5.772;2023-12-14T09:56:00;18.05;;;8.65;;
56477;SDS011;42382;53.210;5.772;2023-12-14T09:58:25;13.70;;;8.13;;
56477;SDS011;42382;53.210;5.772;2023-12-14T10:00:51;15.07;;;8.68;;
56477;SDS011;42382;53.210;5.772;2023-12-14T10:03:18;17.25;;;8.57;;
56477;SDS011;42382;53.210;5.772;2023-12-14T10:05:45;20.30;;;8.05;;
56477;SDS011;42382;53.210;5.772;2023-12-14T10:08:11;14.68;;;8.32;;
56477;SDS011;42382;53.210;5.772;2023-12-14T10:10:37;17.02;;;7.35;;
56477;SDS011;42382;53.210;5.772;2023-12-14T10:13:03;14.52;;;8.02;;
56477;SDS011;42382;53.210;5.772;2023-12-14T10:15:29;15.93;;;8.15;;
56477;SDS011;42382;53.210;5.772;2023-12-14T10:18:04;15.27;;;7.75;;
56477;SDS011;42382;53.210;5.772;2023-12-14T10:20:31;16.50;;;8.32;;
56477;SDS011;42382;53.210;5.772;2023-12-14T10:22:57;14.35;;;7.10;;
56477;SDS011;42382;53.210;5.772;2023-12-14T10:25:22;14.65;;;6.68;;
56477;SDS011;42382;53.210;5.772;2023-12-14T10:27:48;14.57;;;7.88;;
56477;SDS011;42382;53.210;5.772;2023-12-14T10:30:17;15.48;;;7.47;;
56477;SDS011;42382;53.210;5.772;2023-12-14T10:32:45;15.75;;;6.53;;
56477;SDS011;42382;53.210;5.772;2023-12-14T10:35:12;12.93;;;7.68;;
56477;SDS011;42382;53.210;5.772;2023-12-14T10:37:41;19.50;;;7.30;;
56477;SDS011;42382;53.210;5.772;2023-12-14T10:40:07;16.42;;;7.13;;
56477;SDS011;42382;53.210;5.772;2023-12-14T10:42:35;11.18;;;6.45;;
56477;SDS011;42382;53.210;5.772;2023-12-14T10:45:02;18.73;;;7.25;;
56477;SDS011;42382;53.210;5.772;2023-12-14T10:47:28;10.70;;;6.65;;
56477;SDS011;42382;53.210;5.772;2023-12-14T10:49:54;16.02;;;6.65;;
56477;SDS011;42382;53.210;5.772;2023-12-14T10:52:21;12.77;;;6.00;;
56477;SDS011;42382;53.210;5.772;2023-12-14T10:54:49;15.48;;;7.20;;
56477;SDS011;42382;53.210;5.772;2023-12-14T10:57:19;12.55;;;6.88;;
56477;SDS011;42382;53.210;5.772;2023-12-14T10:59:48;12.48;;;7.78;;
56477;SDS011;42382;53.210;5.772;2023-12-14T11:02:14;13.80;;;7.03;;
56477;SDS011;42382;53.210;5.772;2023-12-14T11:07:47;10.82;;;6.57;;
56477;SDS011;42382;53.210;5.772;2023-12-14T11:10:14;11.05;;;7.03;;
56477;SDS011;42382;53.210;5.772;2023-12-14T11:12:59;16.90;;;7.28;;
56477;SDS011;42382;53.210;5.772;2023-12-14T11:15:27;12.68;;;6.70;;
56477;SDS011;42382;53.210;5.772;2023-12-14T11:23:10;11.10;;;6.90;;
56477;SDS011;42382;53.210;5.772;2023-12-14T11:25:44;10.45;;;6.68;;
56477;SDS011;42382;53.210;5.772;2023-12-14T11:28:14;14.13;;;7.50;;
56477;SDS011;42382;53.210;5.772;2023-12-14T11:30:39;14.95;;;7.40;;
56477;SDS011;42382;53.210;5.772;2023-12-14T11:33:05;13.07;;;7.75;;
56477;SDS011;42382;53.210;5.772;2023-12-14T11:35:31;15.63;;;6.53;;
56477;SDS011;42382;53.210;5.772;2023-12-14T11:37:56;17.23;;;7.32;;
56477;SDS011;42382;53.210;5.772;2023-12-14T11:40:24;15.43;;;6.93;;
56477;SDS011;42382;53.210;5.772;2023-12-14T11:42:58;15.35;;;7.70;;
56477;SDS011;42382;53.210;5.772;2023-12-14T11:45:24;15.60;;;8.10;;
56477;SDS011;42382;53.210;5.772;2023-12-14T11:47:51;13.93;;;7.28;;
56477;SDS011;42382;53.210;5.772;2023-12-14T11:50:16;11.98;;;7.50;;
56477;SDS011;42382;53.210;5.772;2023-12-14T11:52:43;13.85;;;7.13;;
56477;SDS011;42382;53.210;5.772;2023-12-14T11:55:12;11.88;;;7.13;;
56477;SDS011;42382;53.210;5.772;2023-12-14T11:57:39;10.68;;;6.07;;
56477;SDS011;42382;53.210;5.772;2023-12-14T12:00:10;19.80;;;7.38;;
56477;SDS011;42382;53.210;5.772;2023-12-14T12:02:36;13.63;;;6.45;;
56477;SDS011;42382;53.210;5.772;2023-12-14T12:05:02;12.68;;;6.38;;
56477;SDS011;42382;53.210;5.772;2023-12-14T12:07:28;18.63;;;7.63;;
56477;SDS011;42382;53.210;5.772;2023-12-14T12:09:54;14.95;;;7.25;;
56477;SDS011;42382;53.210;5.772;2023-12-14T12:12:20;15.65;;;6.55;;
56477;SDS011;42382;53.210;5.772;2023-12-14T12:14:46;12.98;;;6.75;;
56477;SDS011;42382;53.210;5.772;2023-12-14T12:17:14;11.30;;;6.18;;
56477;SDS011;42382;53.210;5.772;2023-12-14T12:19:40;14.18;;;6.60;;
56477;SDS011;42382;53.210;5.772;2023-12-14T12:22:07;13.93;;;5.95;;
56477;SDS011;42382;53.210;5.772;2023-12-14T12:24:33;11.98;;;5.63;;
56477;SDS011;42382;53.210;5.772;2023-12-14T12:26:59;9.93;;;5.97;;
56477;SDS011;42382;53.210;5.772;2023-12-14T12:29:25;18.65;;;6.43;;
56477;SDS011;42382;53.210;5.772;2023-12-14T12:31:51;13.05;;;5.97;;
56477;SDS011;42382;53.210;5.772;2023-12-14T12:34:17;12.00;;;5.32;;
56477;SDS011;42382;53.210;5.772;2023-12-14T12:36:43;10.80;;;5.13;;
56477;SDS011;42382;53.210;5.772;2023-12-14T12:39:09;14.70;;;5.10;;
56477;SDS011;42382;53.210;5.772;2023-12-14T12:41:34;11.90;;;5.85;;
56477;SDS011;42382;53.210;5.772;2023-12-14T12:44:02;13.85;;;5.75;;
56477;SDS011;42382;53.210;5.772;2023-12-14T12:46:32;13.98;;;5.82;;
56477;SDS011;42382;53.210;5.772;2023-12-14T12:48:59;12.45;;;5.53;;
56477;SDS011;42382;53.210;5.772;2023-12-14T12:51:25;10.52;;;5.88;;
56477;SDS011;42382;53.210;5.772;2023-12-14T12:53:52;10.88;;;6.10;;
56477;SDS011;42382;53.210;5.772;2023-12-14T12:56:18;10.23;;;5.60;;
56477;SDS011;42382;53.210;5.772;2023-12-14T12:58:44;10.30;;;5.68;;
56477;SDS011;42382;53.210;5.772;2023-12-14T13:01:09;9.68;;;5.45;;
56477;SDS011;42382;53.210;5.772;2023-12-14T13:03:35;8.50;;;5.20;;
56477;SDS011;42382;53.210;5.772;2023-12-14T13:06:01;11.68;;;6.03;;
56477;SDS011;42382;53.210;5.772;2023-12-14T13:08:26;11.55;;;6.00;;
56477;SDS011;42382;53.210;5.772;2023-12-14T13:10:52;13.10;;;6.10;;
56477;SDS011;42382;53.210;5.772;2023-12-14T13:13:18;9.77;;;6.15;;
56477;SDS011;42382;53.210;5.772;2023-12-14T13:15:44;12.55;;;5.18;;
56477;SDS011;42382;53.210;5.772;2023-12-14T13:18:09;8.52;;;4.70;;
56477;SDS011;42382;53.210;5.772;2023-12-14T13:20:35;10.23;;;5.50;;
56477;SDS011;42382;53.210;5.772;2023-12-14T13:23:01;8.20;;;5.22;;
56477;SDS011;42382;53.210;5.772;2023-12-14T13:25:27;14.00;;;6.10;;
56477;SDS011;42382;53.210;5.772;2023-12-14T13:27:52;12.43;;;6.05;;
56477;SDS011;42382;53.210;5.772;2023-12-14T13:30:18;9.52;;;5.55;;
56477;SDS011;42382;53.210;5.772;2023-12-14T13:32:46;8.30;;;4.85;;
56477;SDS011;42382;53.210;5.772;2023-12-14T13:35:11;10.05;;;5.25;;
56477;SDS011;42382;53.210;5.772;2023-12-14T13:37:37;8.82;;;5.55;;
56477;SDS011;42382;53.210;5.772;2023-12-14T13:40:03;11.63;;;5.80;;
56477;SDS011;42382;53.210;5.772;2023-12-14T13:42:29;7.97;;;5.53;;
56477;SDS011;42382;53.210;5.772;2023-12-14T13:44:54;10.38;;;6.05;;
56477;SDS011;42382;53.210;5.772;2023-12-14T13:47:20;10.52;;;5.70;;
56477;SDS011;42382;53.210;5.772;2023-12-14T13:49:46;10.27;;;5.80;;
56477;SDS011;42382;53.210;5.772;2023-12-14T13:52:11;14.80;;;6.00;;
56477;SDS011;42382;53.210;5.772;2023-12-14T13:54:37;13.57;;;6.18;;
56477;SDS011;42382;53.210;5.772;2023-12-14T13:57:02;8.82;;;5.45;;
56477;SDS011;42382;53.210;5.772;2023-12-14T13:59:28;10.30;;;5.43;;
56477;SDS011;42382;53.210;5.772;2023-12-14T14:01:54;9.18;;;6.13;;
56477;SDS011;42382;53.210;5.772;2023-12-14T14:04:19;10.77;;;6.05;;
56477;SDS011;42382;53.210;5.772;2023-12-14T14:06:45;10.70;;;5.97;;
56477;SDS011;42382;53.210;5.772;2023-12-14T14:09:11;14.57;;;6.03;;
56477;SDS011;42382;53.210;5.772;2023-12-14T14:11:37;11.85;;;5.57;;
56477;SDS011;42382;53.210;5.772;2023-12-14T14:14:06;9.90;;;5.75;;
56477;SDS011;42382;53.210;5.772;2023-12-14T14:16:31;11.32;;;6.53;;
56477;SDS011;42382;53.210;5.772;2023-12-14T14:18:57;11.25;;;6.43;;
56477;SDS011;42382;53.210;5.772;2023-12-14T14:21:23;10.98;;;6.07;;
56477;SDS011;42382;53.210;5.772;2023-12-14T14:23:49;14.13;;;6.45;;
56477;SDS011;42382;53.210;5.772;2023-12-14T14:26:14;14.10;;;7.38;;
56477;SDS011;42382;53.210;5.772;2023-12-14T14:28:40;10.20;;;6.43;;
56477;SDS011;42382;53.210;5.772;2023-12-14T14:31:06;12.73;;;7.05;;
56477;SDS011;42382;53.210;5.772;2023-12-14T14:33:31;11.93;;;7.00;;
56477;SDS011;42382;53.210;5.772;2023-12-14T14:35:57;10.80;;;7.03;;
56477;SDS011;42382;53.210;5.772;2023-12-14T14:38:23;13.23;;;7.45;;
56477;SDS011;42382;53.210;5.772;2023-12-14T14:40:49;12.93;;;7.90;;
56477;SDS011;42382;53.210;5.772;2023-12-14T14:43:14;14.50;;;7.78;;